sensor_id;sensor_type;location;lat;lon;timestamp;temperature;humidity
72905;DHT22;61048;52.162;4.516;2023-04-06T00:00:01;17.60;51.60
72905;DHT22;61048;52.162;4.516;2023-04-06T00:02:29;17.60;51.50
72905;DHT22;61048;52.162;4.516;2023-04-06T00:04:55;17.50;51.60
72905;DHT22;61048;52.162;4.516;2023-04-06T00:07:22;17.60;51.60
72905;DHT22;61048;52.162;4.516;2023-04-06T00:09:49;17.50;51.50
72905;DHT22;61048;52.162;4.516;2023-04-06T00:12:17;17.50;51.60
72905;DHT22;61048;52.162;4.516;2023-04-06T00:14:44;17.50;51.60
72905;DHT22;61048;52.162;4.516;2023-04-06T00:17:11;17.50;51.60
72905;DHT22;61048;52.162;4.516;2023-04-06T00:19:38;17.50;51.60
72905;DHT22;61048;52.162;4.516;2023-04-06T00:22:05;17.50;51.70
72905;DHT22;61048;52.162;4.516;2023-04-06T00:24:31;17.50;51.70
72905;DHT22;61048;52.162;4.516;2023-04-06T00:26:58;17.50;51.70
72905;DHT22;61048;52.162;4.516;2023-04-06T00:29:26;17.50;51.80
72905;DHT22;61048;52.162;4.516;2023-04-06T00:31:53;17.50;51.80
72905;DHT22;61048;52.162;4.516;2023-04-06T00:34:20;17.50;51.70
72905;DHT22;61048;52.162;4.516;2023-04-06T00:36:47;17.50;51.80
72905;DHT22;61048;52.162;4.516;2023-04-06T00:39:14;17.50;51.90
72905;DHT22;61048;52.162;4.516;2023-04-06T00:41:45;17.50;51.80
72905;DHT22;61048;52.162;4.516;2023-04-06T00:44:13;17.50;52.00
72905;DHT22;61048;52.162;4.516;2023-04-06T00:46:41;17.50;51.90
72905;DHT22;61048;52.162;4.516;2023-04-06T00:49:08;17.40;51.90
72905;DHT22;61048;52.162;4.516;2023-04-06T00:51:35;17.50;52.00
72905;DHT22;61048;52.162;4.516;2023-04-06T00:54:02;17.40;52.00
72905;DHT22;61048;52.162;4.516;2023-04-06T00:56:29;17.40;52.00
72905;DHT22;61048;52.162;4.516;2023-04-06T00:58:56;17.40;52.10
72905;DHT22;61048;52.162;4.516;2023-04-06T01:01:23;17.40;52.10
72905;DHT22;61048;52.162;4.516;2023-04-06T01:03:52;17.40;52.00
72905;DHT22;61048;52.162;4.516;2023-04-06T01:06:19;17.40;51.90
72905;DHT22;61048;52.162;4.516;2023-04-06T01:08:47;17.40;52.10
72905;DHT22;61048;52.162;4.516;2023-04-06T01:11:13;17.40;52.00
72905;DHT22;61048;52.162;4.516;2023-04-06T01:13:40;17.40;51.90
72905;DHT22;61048;52.162;4.516;2023-04-06T01:16:07;17.40;51.90
72905;DHT22;61048;52.162;4.516;2023-04-06T01:18:35;17.40;52.00
72905;DHT22;61048;52.162;4.516;2023-04-06T01:21:04;17.30;52.00
72905;DHT22;61048;52.162;4.516;2023-04-06T01:23:32;17.30;51.90
72905;DHT22;61048;52.162;4.516;2023-04-06T01:25:59;17.30;52.00
72905;DHT22;61048;52.162;4.516;2023-04-06T01:28:26;17.30;52.10
72905;DHT22;61048;52.162;4.516;2023-04-06T01:30:53;17.30;52.00
72905;DHT22;61048;52.162;4.516;2023-04-06T01:33:19;17.30;52.00
72905;DHT22;61048;52.162;4.516;2023-04-06T01:35:46;17.30;52.10
72905;DHT22;61048;52.162;4.516;2023-04-06T01:38:13;17.20;52.00
72905;DHT22;61048;52.162;4.516;2023-04-06T01:40:42;17.20;52.10
72905;DHT22;61048;52.162;4.516;2023-04-06T01:43:08;17.20;51.90
72905;DHT22;61048;52.162;4.516;2023-04-06T01:45:35;17.20;52.00
72905;DHT22;61048;52.162;4.516;2023-04-06T01:48:02;17.20;52.00
72905;DHT22;61048;52.162;4.516;2023-04-06T01:50:29;17.20;52.10
72905;DHT22;61048;52.162;4.516;2023-04-06T01:52:56;17.20;52.10
72905;DHT22;61048;52.162;4.516;2023-04-06T01:55:23;17.20;52.00
72905;DHT22;61048;52.162;4.516;2023-04-06T01:57:52;17.20;52.20
72905;DHT22;61048;52.162;4.516;2023-04-06T02:00:19;17.20;52.00
72905;DHT22;61048;52.162;4.516;2023-04-06T02:02:45;17.20;52.10
72905;DHT22;61048;52.162;4.516;2023-04-06T02:05:12;17.10;52.10
72905;DHT22;61048;52.162;4.516;2023-04-06T02:07:39;17.10;52.10
72905;DHT22;61048;52.162;4.516;2023-04-06T02:10:12;17.10;52.10
72905;DHT22;61048;52.162;4.516;2023-04-06T02:12:39;17.10;52.10
72905;DHT22;61048;52.162;4.516;2023-04-06T02:15:08;17.10;52.10
72905;DHT22;61048;52.162;4.516;2023-04-06T02:17:35;17.10;52.10
72905;DHT22;61048;52.162;4.516;2023-04-06T02:20:02;17.10;52.20
72905;DHT22;61048;52.162;4.516;2023-04-06T02:22:29;17.10;52.10
72905;DHT22;61048;52.162;4.516;2023-04-06T02:24:56;17.10;52.40
72905;DHT22;61048;52.162;4.516;2023-04-06T02:27:23;17.10;52.30
72905;DHT22;61048;52.162;4.516;2023-04-06T02:29:49;17.10;52.40
72905;DHT22;61048;52.162;4.516;2023-04-06T02:32:18;17.10;52.70
72905;DHT22;61048;52.162;4.516;2023-04-06T02:34:44;17.10;52.50
72905;DHT22;61048;52.162;4.516;2023-04-06T02:37:11;17.10;52.60
72905;DHT22;61048;52.162;4.516;2023-04-06T02:39:38;17.10;52.60
72905;DHT22;61048;52.162;4.516;2023-04-06T02:42:05;17.10;52.50
72905;DHT22;61048;52.162;4.516;2023-04-06T02:44:32;17.00;52.50
72905;DHT22;61048;52.162;4.516;2023-04-06T02:46:58;17.00;52.80
72905;DHT22;61048;52.162;4.516;2023-04-06T02:49:26;17.00;52.70
72905;DHT22;61048;52.162;4.516;2023-04-06T02:51:53;17.00;52.70
72905;DHT22;61048;52.162;4.516;2023-04-06T02:54:20;17.00;52.90
72905;DHT22;61048;52.162;4.516;2023-04-06T02:56:47;17.00;52.80
72905;DHT22;61048;52.162;4.516;2023-04-06T02:59:14;17.00;52.90
72905;DHT22;61048;52.162;4.516;2023-04-06T03:01:41;17.00;52.80
72905;DHT22;61048;52.162;4.516;2023-04-06T03:04:08;17.00;52.70
72905;DHT22;61048;52.162;4.516;2023-04-06T03:06:36;17.00;52.90
72905;DHT22;61048;52.162;4.516;2023-04-06T03:09:05;17.00;52.90
72905;DHT22;61048;52.162;4.516;2023-04-06T03:11:32;17.00;53.00
72905;DHT22;61048;52.162;4.516;2023-04-06T03:13:58;17.00;52.90
72905;DHT22;61048;52.162;4.516;2023-04-06T03:16:25;17.00;53.10
72905;DHT22;61048;52.162;4.516;2023-04-06T03:18:52;17.00;52.90
72905;DHT22;61048;52.162;4.516;2023-04-06T03:21:19;17.00;53.10
72905;DHT22;61048;52.162;4.516;2023-04-06T03:23:47;17.00;52.80
72905;DHT22;61048;52.162;4.516;2023-04-06T03:26:16;17.00;53.00
72905;DHT22;61048;52.162;4.516;2023-04-06T03:28:43;17.00;52.80
72905;DHT22;61048;52.162;4.516;2023-04-06T03:31:10;16.90;52.80
72905;DHT22;61048;52.162;4.516;2023-04-06T03:33:37;16.90;52.80
72905;DHT22;61048;52.162;4.516;2023-04-06T03:36:04;16.90;52.90
72905;DHT22;61048;52.162;4.516;2023-04-06T03:38:31;16.90;52.80
72905;DHT22;61048;52.162;4.516;2023-04-06T03:41:00;16.90;53.10
72905;DHT22;61048;52.162;4.516;2023-04-06T03:43:26;16.90;53.10
72905;DHT22;61048;52.162;4.516;2023-04-06T03:45:53;16.90;52.90
72905;DHT22;61048;52.162;4.516;2023-04-06T03:48:20;16.90;53.00
72905;DHT22;61048;52.162;4.516;2023-04-06T03:50:47;16.90;53.00
72905;DHT22;61048;52.162;4.516;2023-04-06T03:53:14;16.90;53.00
72905;DHT22;61048;52.162;4.516;2023-04-06T03:55:41;16.90;53.00
72905;DHT22;61048;52.162;4.516;2023-04-06T03:58:09;16.90;53.40
72905;DHT22;61048;52.162;4.516;2023-04-06T04:00:36;16.90;53.20
72905;DHT22;61048;52.162;4.516;2023-04-06T04:03:02;16.90;53.40
72905;DHT22;61048;52.162;4.516;2023-04-06T04:05:29;16.90;53.20
72905;DHT22;61048;52.162;4.516;2023-04-06T04:07:56;16.90;53.40
72905;DHT22;61048;52.162;4.516;2023-04-06T04:10:23;16.90;53.40
72905;DHT22;61048;52.162;4.516;2023-04-06T04:12:50;16.90;53.30
72905;DHT22;61048;52.162;4.516;2023-04-06T04:15:18;16.90;53.30
72905;DHT22;61048;52.162;4.516;2023-04-06T04:17:45;16.90;53.40
72905;DHT22;61048;52.162;4.516;2023-04-06T04:20:14;16.90;53.60
72905;DHT22;61048;52.162;4.516;2023-04-06T04:22:42;16.80;53.60
72905;DHT22;61048;52.162;4.516;2023-04-06T04:25:09;16.80;53.60
72905;DHT22;61048;52.162;4.516;2023-04-06T04:27:36;16.80;53.60
72905;DHT22;61048;52.162;4.516;2023-04-06T04:30:03;16.80;53.60
72905;DHT22;61048;52.162;4.516;2023-04-06T04:32:32;16.80;53.70
72905;DHT22;61048;52.162;4.516;2023-04-06T04:34:58;16.80;53.70
72905;DHT22;61048;52.162;4.516;2023-04-06T04:37:25;16.80;53.80
72905;DHT22;61048;52.162;4.516;2023-04-06T04:39:52;16.80;53.90
72905;DHT22;61048;52.162;4.516;2023-04-06T04:42:19;16.80;53.90
72905;DHT22;61048;52.162;4.516;2023-04-06T04:44:46;16.80;53.80
72905;DHT22;61048;52.162;4.516;2023-04-06T04:47:13;16.80;53.90
72905;DHT22;61048;52.162;4.516;2023-04-06T04:49:41;16.80;53.90
72905;DHT22;61048;52.162;4.516;2023-04-06T04:52:08;16.80;53.80
72905;DHT22;61048;52.162;4.516;2023-04-06T04:54:35;16.80;53.90
72905;DHT22;61048;52.162;4.516;2023-04-06T04:57:01;16.80;53.70
72905;DHT22;61048;52.162;4.516;2023-04-06T04:59:28;16.80;53.90
72905;DHT22;61048;52.162;4.516;2023-04-06T05:01:56;16.80;53.80
72905;DHT22;61048;52.162;4.516;2023-04-06T05:04:22;16.80;53.80
72905;DHT22;61048;52.162;4.516;2023-04-06T05:06:51;16.70;53.90
72905;DHT22;61048;52.162;4.516;2023-04-06T05:09:29;16.80;53.80
72905;DHT22;61048;52.162;4.516;2023-04-06T05:11:56;16.80;53.90
72905;DHT22;61048;52.162;4.516;2023-04-06T05:14:23;16.80;54.00
72905;DHT22;61048;52.162;4.516;2023-04-06T05:16:50;16.70;53.90
72905;DHT22;61048;52.162;4.516;2023-04-06T05:19:17;16.80;54.10
72905;DHT22;61048;52.162;4.516;2023-04-06T05:21:44;16.80;53.70
72905;DHT22;61048;52.162;4.516;2023-04-06T05:24:12;16.80;53.70
72905;DHT22;61048;52.162;4.516;2023-04-06T05:26:39;16.80;53.70
72905;DHT22;61048;52.162;4.516;2023-04-06T05:29:06;16.90;53.70
72905;DHT22;61048;52.162;4.516;2023-04-06T05:31:33;16.90;53.70
72905;DHT22;61048;52.162;4.516;2023-04-06T05:34:00;16.90;53.40
72905;DHT22;61048;52.162;4.516;2023-04-06T05:36:27;16.80;53.40
72905;DHT22;61048;52.162;4.516;2023-04-06T05:38:54;16.80;53.30
72905;DHT22;61048;52.162;4.516;2023-04-06T05:41:23;16.80;53.20
72905;DHT22;61048;52.162;4.516;2023-04-06T05:43:50;16.70;53.20
72905;DHT22;61048;52.162;4.516;2023-04-06T05:46:17;16.70;53.10
72905;DHT22;61048;52.162;4.516;2023-04-06T05:48:45;16.70;53.10
72905;DHT22;61048;52.162;4.516;2023-04-06T05:53:41;17.30;55.00
72905;DHT22;61048;52.162;4.516;2023-04-06T05:56:08;16.90;55.40
72905;DHT22;61048;52.162;4.516;2023-04-06T05:58:36;17.00;57.00
72905;DHT22;61048;52.162;4.516;2023-04-06T06:01:03;17.00;57.80
72905;DHT22;61048;52.162;4.516;2023-04-06T06:03:30;17.10;58.50
72905;DHT22;61048;52.162;4.516;2023-04-06T06:06:01;17.10;57.80
72905;DHT22;61048;52.162;4.516;2023-04-06T06:08:27;17.00;57.80
72905;DHT22;61048;52.162;4.516;2023-04-06T06:10:54;17.00;57.20
72905;DHT22;61048;52.162;4.516;2023-04-06T06:13:22;17.00;57.10
72905;DHT22;61048;52.162;4.516;2023-04-06T06:15:50;17.00;57.60
72905;DHT22;61048;52.162;4.516;2023-04-06T06:18:17;17.00;57.20
72905;DHT22;61048;52.162;4.516;2023-04-06T06:20:44;17.00;56.90
72905;DHT22;61048;52.162;4.516;2023-04-06T06:23:11;17.00;56.80
72905;DHT22;61048;52.162;4.516;2023-04-06T06:25:38;16.90;57.20
72905;DHT22;61048;52.162;4.516;2023-04-06T06:28:05;16.90;57.10
72905;DHT22;61048;52.162;4.516;2023-04-06T06:30:32;17.00;57.10
72905;DHT22;61048;52.162;4.516;2023-04-06T06:33:00;17.00;57.40
72905;DHT22;61048;52.162;4.516;2023-04-06T06:35:27;17.00;57.20
72905;DHT22;61048;52.162;4.516;2023-04-06T06:37:54;17.00;57.20
72905;DHT22;61048;52.162;4.516;2023-04-06T06:40:20;17.00;56.90
72905;DHT22;61048;52.162;4.516;2023-04-06T06:42:49;17.00;56.70
72905;DHT22;61048;52.162;4.516;2023-04-06T06:45:17;17.00;56.70
72905;DHT22;61048;52.162;4.516;2023-04-06T06:47:44;17.00;57.10
72905;DHT22;61048;52.162;4.516;2023-04-06T06:50:12;17.10;56.90
72905;DHT22;61048;52.162;4.516;2023-04-06T06:52:39;17.00;56.70
72905;DHT22;61048;52.162;4.516;2023-04-06T06:55:08;17.00;56.40
72905;DHT22;61048;52.162;4.516;2023-04-06T06:57:35;16.90;56.10
72905;DHT22;61048;52.162;4.516;2023-04-06T07:00:02;16.90;55.40
72905;DHT22;61048;52.162;4.516;2023-04-06T07:02:30;16.90;55.20
72905;DHT22;61048;52.162;4.516;2023-04-06T07:04:57;16.90;55.10
72905;DHT22;61048;52.162;4.516;2023-04-06T07:07:25;16.90;56.20
72905;DHT22;61048;52.162;4.516;2023-04-06T07:09:52;16.90;59.50
72905;DHT22;61048;52.162;4.516;2023-04-06T07:12:18;17.00;60.80
72905;DHT22;61048;52.162;4.516;2023-04-06T07:14:45;17.10;59.90
72905;DHT22;61048;52.162;4.516;2023-04-06T07:17:12;17.20;60.10
72905;DHT22;61048;52.162;4.516;2023-04-06T07:19:39;17.20;60.20
72905;DHT22;61048;52.162;4.516;2023-04-06T07:22:06;17.20;60.10
72905;DHT22;61048;52.162;4.516;2023-04-06T07:24:34;17.30;60.20
72905;DHT22;61048;52.162;4.516;2023-04-06T07:27:01;17.30;60.00
72905;DHT22;61048;52.162;4.516;2023-04-06T07:29:28;17.40;60.50
72905;DHT22;61048;52.162;4.516;2023-04-06T07:31:55;17.40;60.70
72905;DHT22;61048;52.162;4.516;2023-04-06T07:34:22;17.40;60.00
72905;DHT22;61048;52.162;4.516;2023-04-06T07:36:49;17.40;60.00
72905;DHT22;61048;52.162;4.516;2023-04-06T07:39:18;17.40;59.30
72905;DHT22;61048;52.162;4.516;2023-04-06T07:41:46;17.40;59.10
72905;DHT22;61048;52.162;4.516;2023-04-06T07:44:13;17.40;59.20
72905;DHT22;61048;52.162;4.516;2023-04-06T07:46:40;17.40;59.20
72905;DHT22;61048;52.162;4.516;2023-04-06T07:49:07;17.30;59.20
72905;DHT22;61048;52.162;4.516;2023-04-06T07:51:36;17.30;59.30
72905;DHT22;61048;52.162;4.516;2023-04-06T07:54:03;17.30;59.30
72905;DHT22;61048;52.162;4.516;2023-04-06T07:56:30;17.30;59.10
72905;DHT22;61048;52.162;4.516;2023-04-06T07:58:58;17.30;59.20
72905;DHT22;61048;52.162;4.516;2023-04-06T08:01:25;17.30;59.20
72905;DHT22;61048;52.162;4.516;2023-04-06T08:03:52;17.30;58.80
72905;DHT22;61048;52.162;4.516;2023-04-06T08:06:21;17.30;58.60
72905;DHT22;61048;52.162;4.516;2023-04-06T08:08:47;17.30;58.60
72905;DHT22;61048;52.162;4.516;2023-04-06T08:11:14;17.30;58.50
72905;DHT22;61048;52.162;4.516;2023-04-06T08:13:41;17.30;58.70
72905;DHT22;61048;52.162;4.516;2023-04-06T08:16:09;17.30;58.60
72905;DHT22;61048;52.162;4.516;2023-04-06T08:18:36;17.30;58.60
72905;DHT22;61048;52.162;4.516;2023-04-06T08:21:03;17.30;58.50
72905;DHT22;61048;52.162;4.516;2023-04-06T08:23:30;17.30;58.50
72905;DHT22;61048;52.162;4.516;2023-04-06T08:25:57;17.30;58.30
72905;DHT22;61048;52.162;4.516;2023-04-06T08:28:24;17.30;58.60
72905;DHT22;61048;52.162;4.516;2023-04-06T08:30:51;17.30;58.50
72905;DHT22;61048;52.162;4.516;2023-04-06T08:33:19;17.30;58.30
72905;DHT22;61048;52.162;4.516;2023-04-06T08:35:46;17.30;58.10
72905;DHT22;61048;52.162;4.516;2023-04-06T08:38:12;17.30;58.10
72905;DHT22;61048;52.162;4.516;2023-04-06T08:40:40;17.30;57.90
72905;DHT22;61048;52.162;4.516;2023-04-06T08:43:12;17.30;58.00
72905;DHT22;61048;52.162;4.516;2023-04-06T08:45:40;17.30;58.10
72905;DHT22;61048;52.162;4.516;2023-04-06T08:48:08;17.40;58.10
72905;DHT22;61048;52.162;4.516;2023-04-06T08:50:38;17.40;57.80
72905;DHT22;61048;52.162;4.516;2023-04-06T08:53:06;17.40;57.80
72905;DHT22;61048;52.162;4.516;2023-04-06T08:55:35;17.40;57.70
72905;DHT22;61048;52.162;4.516;2023-04-06T08:58:03;17.40;57.60
72905;DHT22;61048;52.162;4.516;2023-04-06T09:00:30;17.40;57.50
72905;DHT22;61048;52.162;4.516;2023-04-06T09:02:58;17.40;57.80
72905;DHT22;61048;52.162;4.516;2023-04-06T09:05:26;17.40;57.50
72905;DHT22;61048;52.162;4.516;2023-04-06T09:07:54;17.40;57.40
72905;DHT22;61048;52.162;4.516;2023-04-06T09:10:21;17.40;57.40
72905;DHT22;61048;52.162;4.516;2023-04-06T09:12:51;17.40;57.40
72905;DHT22;61048;52.162;4.516;2023-04-06T09:15:19;17.40;57.10
72905;DHT22;61048;52.162;4.516;2023-04-06T09:17:46;17.40;57.40
72905;DHT22;61048;52.162;4.516;2023-04-06T09:20:13;17.40;57.40
72905;DHT22;61048;52.162;4.516;2023-04-06T09:22:40;17.50;57.40
72905;DHT22;61048;52.162;4.516;2023-04-06T09:25:17;17.50;57.30
72905;DHT22;61048;52.162;4.516;2023-04-06T12:16:56;17.60;55.40
72905;DHT22;61048;52.162;4.516;2023-04-06T12:19:23;17.20;56.00
72905;DHT22;61048;52.162;4.516;2023-04-06T12:21:51;17.20;56.10
72905;DHT22;61048;52.162;4.516;2023-04-06T12:24:18;17.20;55.90
72905;DHT22;61048;52.162;4.516;2023-04-06T12:26:45;17.20;56.10
72905;DHT22;61048;52.162;4.516;2023-04-06T12:29:14;17.10;56.20
72905;DHT22;61048;52.162;4.516;2023-04-06T12:31:40;17.20;56.00
72905;DHT22;61048;52.162;4.516;2023-04-06T12:34:10;17.10;56.10
72905;DHT22;61048;52.162;4.516;2023-04-06T12:36:37;17.10;56.10
72905;DHT22;61048;52.162;4.516;2023-04-06T12:39:05;17.10;56.10
72905;DHT22;61048;52.162;4.516;2023-04-06T12:41:32;17.10;56.10
72905;DHT22;61048;52.162;4.516;2023-04-06T12:43:59;17.10;56.10
72905;DHT22;61048;52.162;4.516;2023-04-06T12:46:29;17.10;56.20
72905;DHT22;61048;52.162;4.516;2023-04-06T12:48:56;17.10;56.10
72905;DHT22;61048;52.162;4.516;2023-04-06T12:51:24;17.10;56.10
72905;DHT22;61048;52.162;4.516;2023-04-06T12:53:52;17.10;56.20
72905;DHT22;61048;52.162;4.516;2023-04-06T12:56:19;17.10;56.20
72905;DHT22;61048;52.162;4.516;2023-04-06T12:58:49;17.10;56.30
72905;DHT22;61048;52.162;4.516;2023-04-06T13:01:16;17.10;56.30
72905;DHT22;61048;52.162;4.516;2023-04-06T13:03:45;17.10;56.10
72905;DHT22;61048;52.162;4.516;2023-04-06T13:06:11;17.10;56.30
72905;DHT22;61048;52.162;4.516;2023-04-06T13:08:40;17.10;56.40
72905;DHT22;61048;52.162;4.516;2023-04-06T13:11:07;17.00;56.50
72905;DHT22;61048;52.162;4.516;2023-04-06T13:13:35;17.00;56.30
72905;DHT22;61048;52.162;4.516;2023-04-06T13:16:04;17.00;56.30
72905;DHT22;61048;52.162;4.516;2023-04-06T13:18:31;17.00;56.30
72905;DHT22;61048;52.162;4.516;2023-04-06T13:20:59;17.00;56.40
72905;DHT22;61048;52.162;4.516;2023-04-06T13:23:27;17.00;56.40
72905;DHT22;61048;52.162;4.516;2023-04-06T13:26:00;17.00;56.40
72905;DHT22;61048;52.162;4.516;2023-04-06T13:28:27;17.00;56.30
72905;DHT22;61048;52.162;4.516;2023-04-06T13:30:55;17.00;56.40
72905;DHT22;61048;52.162;4.516;2023-04-06T13:33:22;17.00;56.30
72905;DHT22;61048;52.162;4.516;2023-04-06T13:35:49;17.00;56.30
72905;DHT22;61048;52.162;4.516;2023-04-06T13:38:17;17.00;56.50
72905;DHT22;61048;52.162;4.516;2023-04-06T13:40:44;17.00;56.30
72905;DHT22;61048;52.162;4.516;2023-04-06T13:43:11;17.00;56.40
72905;DHT22;61048;52.162;4.516;2023-04-06T13:45:38;17.00;56.50
72905;DHT22;61048;52.162;4.516;2023-04-06T13:48:05;17.00;56.40
72905;DHT22;61048;52.162;4.516;2023-04-06T13:50:33;17.00;56.30
72905;DHT22;61048;52.162;4.516;2023-04-06T13:53:00;16.90;56.40
72905;DHT22;61048;52.162;4.516;2023-04-06T13:55:28;16.90;56.50
72905;DHT22;61048;52.162;4.516;2023-04-06T13:57:56;16.90;56.40
72905;DHT22;61048;52.162;4.516;2023-04-06T14:00:24;16.90;56.40
72905;DHT22;61048;52.162;4.516;2023-04-06T14:02:53;16.90;56.50
72905;DHT22;61048;52.162;4.516;2023-04-06T14:05:20;16.90;56.40
72905;DHT22;61048;52.162;4.516;2023-04-06T14:07:47;16.90;56.50
72905;DHT22;61048;52.162;4.516;2023-04-06T14:10:14;17.00;56.40
72905;DHT22;61048;52.162;4.516;2023-04-06T14:12:43;16.90;56.30
72905;DHT22;61048;52.162;4.516;2023-04-06T14:15:11;16.90;56.40
72905;DHT22;61048;52.162;4.516;2023-04-06T14:17:38;16.90;56.40
72905;DHT22;61048;52.162;4.516;2023-04-06T14:20:06;16.90;56.40
72905;DHT22;61048;52.162;4.516;2023-04-06T14:22:33;16.90;56.40
72905;DHT22;61048;52.162;4.516;2023-04-06T14:25:00;16.90;56.30
72905;DHT22;61048;52.162;4.516;2023-04-06T14:27:27;16.90;56.40
72905;DHT22;61048;52.162;4.516;2023-04-06T14:29:55;16.90;56.30
72905;DHT22;61048;52.162;4.516;2023-04-06T14:32:22;16.90;56.40
72905;DHT22;61048;52.162;4.516;2023-04-06T14:34:50;16.90;56.40
72905;DHT22;61048;52.162;4.516;2023-04-06T14:37:16;16.90;56.40
72905;DHT22;61048;52.162;4.516;2023-04-06T14:39:44;16.90;56.30
72905;DHT22;61048;52.162;4.516;2023-04-06T14:42:11;16.90;56.40
72905;DHT22;61048;52.162;4.516;2023-04-06T14:44:38;16.90;56.40
72905;DHT22;61048;52.162;4.516;2023-04-06T14:47:09;16.90;56.30
72905;DHT22;61048;52.162;4.516;2023-04-06T14:49:36;16.90;56.40
72905;DHT22;61048;52.162;4.516;2023-04-06T14:52:04;16.90;56.30
72905;DHT22;61048;52.162;4.516;2023-04-06T14:54:31;16.90;56.50
72905;DHT22;61048;52.162;4.516;2023-04-06T14:56:57;16.90;56.50
72905;DHT22;61048;52.162;4.516;2023-04-06T14:59:26;16.90;56.40
72905;DHT22;61048;52.162;4.516;2023-04-06T15:01:53;16.90;56.50
72905;DHT22;61048;52.162;4.516;2023-04-06T15:04:21;16.90;56.60
72905;DHT22;61048;52.162;4.516;2023-04-06T15:06:48;16.90;56.60
72905;DHT22;61048;52.162;4.516;2023-04-06T15:09:15;17.00;56.50
72905;DHT22;61048;52.162;4.516;2023-04-06T15:11:41;16.90;56.40
72905;DHT22;61048;52.162;4.516;2023-04-06T15:14:08;17.00;56.60
72905;DHT22;61048;52.162;4.516;2023-04-06T15:16:35;17.00;56.40
72905;DHT22;61048;52.162;4.516;2023-04-06T15:19:02;17.00;56.60
72905;DHT22;61048;52.162;4.516;2023-04-06T15:21:30;17.00;56.60
72905;DHT22;61048;52.162;4.516;2023-04-06T15:23:58;17.00;56.50
72905;DHT22;61048;52.162;4.516;2023-04-06T15:26:25;17.00;56.50
72905;DHT22;61048;52.162;4.516;2023-04-06T15:28:52;17.00;56.60
72905;DHT22;61048;52.162;4.516;2023-04-06T15:31:19;17.00;56.50
72905;DHT22;61048;52.162;4.516;2023-04-06T15:33:46;17.00;56.60
72905;DHT22;61048;52.162;4.516;2023-04-06T15:36:23;17.00;56.60
72905;DHT22;61048;52.162;4.516;2023-04-06T15:38:52;17.00;56.60
72905;DHT22;61048;52.162;4.516;2023-04-06T15:41:20;17.00;56.60
72905;DHT22;61048;52.162;4.516;2023-04-06T15:43:47;16.90;56.70
72905;DHT22;61048;52.162;4.516;2023-04-06T15:46:14;17.00;56.60
72905;DHT22;61048;52.162;4.516;2023-04-06T15:48:41;17.00;56.80
72905;DHT22;61048;52.162;4.516;2023-04-06T15:51:08;17.00;56.70
72905;DHT22;61048;52.162;4.516;2023-04-06T15:53:35;17.00;56.70
72905;DHT22;61048;52.162;4.516;2023-04-06T15:56:04;17.00;56.70
72905;DHT22;61048;52.162;4.516;2023-04-06T15:58:33;17.00;56.80
72905;DHT22;61048;52.162;4.516;2023-04-06T16:01:00;17.00;56.70
72905;DHT22;61048;52.162;4.516;2023-04-06T16:03:27;17.00;56.70
72905;DHT22;61048;52.162;4.516;2023-04-06T16:05:54;17.00;56.70
72905;DHT22;61048;52.162;4.516;2023-04-06T16:08:21;17.00;56.70
72905;DHT22;61048;52.162;4.516;2023-04-06T16:10:48;17.00;56.80
72905;DHT22;61048;52.162;4.516;2023-04-06T16:13:17;17.00;56.80
72905;DHT22;61048;52.162;4.516;2023-04-06T16:15:44;17.00;56.80
72905;DHT22;61048;52.162;4.516;2023-04-06T16:18:15;17.00;56.70
72905;DHT22;61048;52.162;4.516;2023-04-06T16:20:42;17.00;56.70
72905;DHT22;61048;52.162;4.516;2023-04-06T16:23:09;17.00;56.70
72905;DHT22;61048;52.162;4.516;2023-04-06T16:25:36;17.00;56.70
72905;DHT22;61048;52.162;4.516;2023-04-06T16:28:03;17.00;56.80
72905;DHT22;61048;52.162;4.516;2023-04-06T16:30:31;17.00;56.80
72905;DHT22;61048;52.162;4.516;2023-04-06T16:32:58;17.00;56.70
72905;DHT22;61048;52.162;4.516;2023-04-06T16:35:25;17.00;56.90
72905;DHT22;61048;52.162;4.516;2023-04-06T16:37:52;17.00;56.70
72905;DHT22;61048;52.162;4.516;2023-04-06T16:40:19;17.00;56.80
72905;DHT22;61048;52.162;4.516;2023-04-06T16:42:46;17.00;56.90
72905;DHT22;61048;52.162;4.516;2023-04-06T16:45:13;17.00;56.80
72905;DHT22;61048;52.162;4.516;2023-04-06T16:47:42;17.00;56.80
72905;DHT22;61048;52.162;4.516;2023-04-06T16:50:10;17.00;57.00
72905;DHT22;61048;52.162;4.516;2023-04-06T16:52:36;17.00;56.80
72905;DHT22;61048;52.162;4.516;2023-04-06T16:55:04;17.00;56.70
72905;DHT22;61048;52.162;4.516;2023-04-06T16:57:31;17.00;56.80
72905;DHT22;61048;52.162;4.516;2023-04-06T16:59:59;17.00;56.80
72905;DHT22;61048;52.162;4.516;2023-04-06T17:02:25;17.00;56.80
72905;DHT22;61048;52.162;4.516;2023-04-06T17:04:54;17.00;56.90
72905;DHT22;61048;52.162;4.516;2023-04-06T17:07:21;17.00;56.90
72905;DHT22;61048;52.162;4.516;2023-04-06T17:09:51;17.00;56.70
72905;DHT22;61048;52.162;4.516;2023-04-06T17:12:17;17.00;56.70
72905;DHT22;61048;52.162;4.516;2023-04-06T17:14:44;17.00;56.70
72905;DHT22;61048;52.162;4.516;2023-04-06T17:17:11;17.00;56.70
72905;DHT22;61048;52.162;4.516;2023-04-06T17:19:38;17.00;56.70
72905;DHT22;61048;52.162;4.516;2023-04-06T17:22:06;17.00;56.70
72905;DHT22;61048;52.162;4.516;2023-04-06T17:24:33;17.00;56.80
72905;DHT22;61048;52.162;4.516;2023-04-06T17:27:00;17.00;56.70
72905;DHT22;61048;52.162;4.516;2023-04-06T17:29:28;17.00;56.70
72905;DHT22;61048;52.162;4.516;2023-04-06T17:31:54;17.00;56.90
72905;DHT22;61048;52.162;4.516;2023-04-06T17:34:21;17.00;56.80
72905;DHT22;61048;52.162;4.516;2023-04-06T17:36:48;17.00;56.60
72905;DHT22;61048;52.162;4.516;2023-04-06T17:39:16;17.00;56.70
72905;DHT22;61048;52.162;4.516;2023-04-06T17:41:43;17.00;56.60
72905;DHT22;61048;52.162;4.516;2023-04-06T17:44:10;17.00;56.70
72905;DHT22;61048;52.162;4.516;2023-04-06T17:46:37;17.00;56.70
72905;DHT22;61048;52.162;4.516;2023-04-06T17:49:04;17.00;56.70
72905;DHT22;61048;52.162;4.516;2023-04-06T17:51:32;17.00;56.70
72905;DHT22;61048;52.162;4.516;2023-04-06T17:53:59;17.00;56.70
72905;DHT22;61048;52.162;4.516;2023-04-06T17:56:27;17.00;56.60
72905;DHT22;61048;52.162;4.516;2023-04-06T17:58:54;17.00;56.70
72905;DHT22;61048;52.162;4.516;2023-04-06T18:01:22;17.00;56.60
72905;DHT22;61048;52.162;4.516;2023-04-06T18:03:49;17.00;56.70
72905;DHT22;61048;52.162;4.516;2023-04-06T18:06:16;17.00;56.70
72905;DHT22;61048;52.162;4.516;2023-04-06T18:08:43;17.00;56.70
72905;DHT22;61048;52.162;4.516;2023-04-06T18:11:14;17.00;56.60
72905;DHT22;61048;52.162;4.516;2023-04-06T18:13:42;17.00;56.70
72905;DHT22;61048;52.162;4.516;2023-04-06T18:16:09;17.00;56.70
72905;DHT22;61048;52.162;4.516;2023-04-06T18:18:36;17.00;56.70
72905;DHT22;61048;52.162;4.516;2023-04-06T18:21:04;17.00;56.70